Accueil
METAR-TAF:

METAR-TAF

Aéroports :

Aéroport international de Sibiu

Sibiu, Roumanie

latitude: 45-48N, longitude: 024-09E, altitude: 443 m

Observation

Le bulletin a été fait il y a 18 minutes, à 19:00 UTC
Vent 2 kt de direction variable
Température 23°C
Humidité 73%
Pression 1014 hPa
Visibilité 10 km ou plus
pas de nuages en-dessous de 1500 mètres et pas de cumulonimbus.

METAR: LRSB 131900Z VRB02KT CAVOK 23/18 Q1014

Heure: 22:18 (19:18 UTC)

Prévision

Le bulletin a été fait il y a 2 heures et 18 minutes, à 17:00 UTC
Prévision valable du 13 à 18 UTC au 14 à 18 UTC
Vent 4 kt de direction variable
Visibilité 10 km ou plus
Nuages épars à une hauteur de 5500 ft
Temporairement
du 14 à 13 UTC au 14 à 17 UTC
Nuages épars à une hauteur de 4500 ft, Cumulonimbus.

TAF: LRSB 131700Z 1318/1418 VRB04KT 9999 SCT055 TEMPO 1413/1417 SCT045CB

Observations et prévisions météorologiques de plus de 4000 aéroports (messages METAR et TAF).

Les stations disponibles sont représentées par des disques jaunes et rouges sur la carte.

Passer la souris dessus pour voir le nom de la station.

Cliquer dessus pour voir les observations et prévisions météorologiques.

Pour changer de carte: cliquez sur les boutons verts avec une croix noire pour zoomer, sur le bouton vert avec un tiret pour effectuer un zoom arrière, ou sur les flèches vertes pour les cartes adjacentes.


METAR-TAF: